Time;durP1;ratioP1;P1;durP2;ratioP2;P2;SDS_P1;SDS_P2;PMS_P1;PMS_P2;Temp;Humidity;BMP_temperature;BMP_pressure;BME280_temperature;BME280_humidity;BME280_pressure;Samples;Min_cycle;Max_cycle;Signal;HPM_P1;HPM_P2
2023/06/09 04:31:18;;;;;;;8.35;7.75;;;17.00;1.00;;;;;;4999793;28;20227;-87
2023/06/09 04:33:46;;;;;;;9.10;8.27;;;17.10;99.90;;;;;;4996717;28;20192;-86
2023/06/09 04:36:13;;;;;;;9.93;8.77;;;19.20;1.00;;;;;;4997533;28;20290;-86
2023/06/09 04:38:39;;;;;;;7.80;6.95;;;17.30;99.90;;;;;;4996924;28;20195;-87
2023/06/09 04:41:04;;;;;;;9.30;8.52;;;18.90;99.90;;;;;;4998282;28;20291;-87
2023/06/09 04:43:32;;;;;;;9.75;8.85;;;18.00;99.90;;;;;;4994690;28;20198;-85
2023/06/09 04:45:59;;;;;;;10.05;9.05;;;17.40;99.90;;;;;;4996857;28;20187;-88
2023/06/09 04:48:29;;;;;;;9.00;8.30;;;19.30;99.90;;;;;;4987377;28;20266;-87
2023/06/09 04:50:56;;;;;;;8.82;8.00;;;19.00;99.90;;;;;;4997026;28;20210;-87
2023/06/09 04:53:22;;;;;;;8.75;8.05;;;19.40;99.90;;;;;;4996921;28;20279;-87
2023/06/09 04:55:48;;;;;;;8.23;7.47;;;19.30;99.90;;;;;;4996349;28;20311;-88
2023/06/09 04:58:15;;;;;;;7.40;6.80;;;18.90;99.90;;;;;;4995813;28;20267;-87
2023/06/09 05:00:41;;;;;;;8.85;7.95;;;18.90;99.90;;;;;;4995401;28;20223;-87
2023/06/09 05:03:06;;;;;;;7.53;6.93;;;19.80;99.90;;;;;;4996651;28;20184;-88
2023/06/09 05:05:32;;;;;;;7.78;7.07;;;18.70;99.90;;;;;;4995083;28;20278;-86
2023/06/09 05:07:58;;;;;;;7.43;6.82;;;19.90;99.90;;;;;;4995259;28;20271;-88
2023/06/09 05:10:23;;;;;;;7.57;6.88;;;18.50;83.50;;;;;;4997734;28;20237;-88
2023/06/09 05:12:49;;;;;;;7.32;6.72;;;18.70;80.60;;;;;;4995426;28;20187;-86
2023/06/09 05:15:16;;;;;;;8.18;6.93;;;19.30;67.20;;;;;;4996150;28;20599;-88
2023/06/09 05:17:42;;;;;;;8.20;7.50;;;19.40;20.70;;;;;;4997054;28;20186;-87
2023/06/09 05:20:09;;;;;;;7.75;7.05;;;20.80;3.00;;;;;;4996152;28;20175;-87
2023/06/09 05:22:36;;;;;;;8.43;7.63;;;19.90;1.00;;;;;;4996187;28;20184;-88
2023/06/09 05:25:05;;;;;;;6.90;6.40;;;21.10;1.00;;;;;;4995458;28;20190;-85
2023/06/09 05:27:31;;;;;;;8.45;7.70;;;20.10;1.00;;;;;;4998461;28;20658;-87
2023/06/09 05:29:57;;;;;;;8.52;7.68;;;20.50;1.00;;;;;;5000488;28;20179;-87
2023/06/09 05:32:22;;;;;;;8.63;7.82;;;21.30;1.00;;;;;;4998463;28;20239;-87
2023/06/09 05:34:49;;;;;;;8.10;7.40;;;20.00;1.00;;;;;;4997198;28;20180;-87
2023/06/09 05:37:18;;;;;;;8.15;7.43;;;20.20;1.00;;;;;;5001319;28;20198;-87
2023/06/09 05:39:44;;;;;;;8.48;7.78;;;19.90;1.00;;;;;;5001431;28;20179;-89
2023/06/09 05:42:11;;;;;;;9.10;8.20;;;19.80;1.00;;;;;;5007413;28;20219;-88
2023/06/09 05:44:37;;;;;;;8.77;8.02;;;19.70;1.00;;;;;;5003971;28;20196;-87
2023/06/09 05:47:03;;;;;;;8.15;7.45;;;21.10;1.00;;;;;;5002280;28;20191;-87
2023/06/09 05:49:28;;;;;;;10.38;8.50;;;19.60;1.00;;;;;;4999199;28;20187;-88
2023/06/09 05:51:54;;;;;;;9.75;8.85;;;19.40;1.00;;;;;;5000545;28;20215;-88
2023/06/09 05:54:20;;;;;;;9.43;8.68;;;20.00;1.00;;;;;;4999121;28;20673;-87
2023/06/09 05:56:48;;;;;;;8.88;8.18;;;19.30;1.00;;;;;;4997706;28;20202;-87
2023/06/09 05:59:14;;;;;;;8.18;7.47;;;20.10;1.00;;;;;;4998327;28;20229;-87
2023/06/09 06:01:41;;;;;;;8.55;7.80;;;19.90;1.00;;;;;;4999320;28;20203;-87
2023/06/09 06:04:07;;;;;;;9.18;8.32;;;20.00;1.00;;;;;;4998428;28;20541;-89
2023/06/09 06:06:33;;;;;;;9.20;8.40;;;20.50;1.00;;;;;;4998830;28;20188;-87
2023/06/09 06:08:59;;;;;;;8.40;7.60;;;20.00;1.00;;;;;;5000350;28;20275;-87
2023/06/09 06:11:25;;;;;;;8.27;7.68;;;20.70;1.00;;;;;;4999127;28;20278;-88
2023/06/09 06:13:50;;;;;;;8.35;7.68;;;20.00;1.00;;;;;;5003248;28;20255;-87
2023/06/09 06:16:16;;;;;;;10.02;9.13;;;20.40;1.00;;;;;;5000904;28;20175;-87
2023/06/09 06:18:42;;;;;;;8.93;8.13;;;19.90;1.00;;;;;;5003027;28;20689;-86
2023/06/09 06:21:07;;;;;;;9.95;8.35;;;21.40;1.00;;;;;;4994274;28;20737;-88
2023/06/09 06:23:33;;;;;;;9.35;8.55;;;20.00;1.00;;;;;;4999448;28;20184;-87
2023/06/09 06:25:59;;;;;;;8.80;8.00;;;20.10;1.00;;;;;;4996299;28;20203;-87
2023/06/09 06:28:24;;;;;;;9.27;8.18;;;20.90;1.00;;;;;;5001520;28;20187;-86
2023/06/09 06:30:50;;;;;;;8.98;8.27;;;20.30;1.00;;;;;;5000746;28;20220;-86
2023/06/09 06:33:16;;;;;;;9.40;8.52;;;20.40;1.00;;;;;;4996499;28;20196;-87
2023/06/09 06:35:42;;;;;;;9.25;8.55;;;20.60;1.00;;;;;;4997902;28;20186;-88
2023/06/09 06:38:08;;;;;;;9.18;8.35;;;21.60;1.00;;;;;;4997854;28;20180;-89
2023/06/09 06:40:33;;;;;;;7.97;7.30;;;20.90;1.00;;;;;;4996351;28;20203;-87
2023/06/09 06:42:59;;;;;;;8.27;7.57;;;20.70;1.00;;;;;;5013346;28;20221;-87
2023/06/09 06:45:26;;;;;;;8.23;7.40;;;20.70;1.00;;;;;;4998816;28;20290;-88
2023/06/09 06:47:53;;;;;;;8.65;7.85;;;21.30;1.00;;;;;;4997336;28;20184;-87
2023/06/09 06:50:19;;;;;;;8.60;7.80;;;20.90;1.00;;;;;;4997182;28;20187;-87
2023/06/09 06:52:46;;;;;;;8.55;7.75;;;22.00;1.00;;;;;;4988535;28;20271;-86
2023/06/09 06:55:11;;;;;;;9.93;8.93;;;20.90;1.00;;;;;;4998218;28;20971;-88
2023/06/09 06:57:38;;;;;;;8.90;8.10;;;21.10;1.00;;;;;;5001849;28;20275;-87
2023/06/09 07:00:14;;;;;;;9.13;8.23;;;21.90;1.00;;;;;;5001452;28;20179;-88
2023/06/09 07:02:50;;;;;;;8.73;7.85;;;21.00;1.00;;;;;;4998149;28;20635;-87
2023/06/09 07:05:16;;;;;;;9.15;8.25;;;21.90;1.00;;;;;;4990190;28;20203;-89
2023/06/09 07:07:43;;;;;;;10.15;9.15;;;21.30;1.00;;;;;;4999805;28;20180;-88
2023/06/09 07:10:10;;;;;;;8.88;8.13;;;22.20;1.00;;;;;;4999377;28;20187;-88
2023/06/09 07:12:36;;;;;;;9.25;8.27;;;21.60;1.00;;;;;;4997789;28;20210;-88
2023/06/09 07:15:03;;;;;;;10.00;9.10;;;22.10;1.00;;;;;;4995855;28;20180;-87
2023/06/09 07:17:28;;;;;;;8.85;8.15;;;21.90;1.00;;;;;;4999502;28;20187;-88
2023/06/09 07:19:55;;;;;;;8.65;7.75;;;23.20;1.00;;;;;;4997745;28;20250;-87
2023/06/09 07:22:20;;;;;;;9.23;8.40;;;23.90;1.00;;;;;;4995421;28;20223;-88
2023/06/09 07:24:50;;;;;;;8.60;7.90;;;22.60;1.00;;;;;;4998487;28;20181;-87
2023/06/09 07:27:17;;;;;;;7.38;6.72;;;22.80;1.00;;;;;;4997196;28;20278;-88
2023/06/09 07:29:43;;;;;;;9.48;8.57;;;23.00;1.00;;;;;;5000239;28;20203;-88
2023/06/09 07:32:09;;;;;;;8.60;7.80;;;23.50;1.00;;;;;;4998433;28;20265;-88
2023/06/09 07:34:35;;;;;;;7.93;7.20;;;24.40;1.00;;;;;;4999642;28;20271;-89
2023/06/09 07:37:04;;;;;;;7.85;7.13;;;23.70;1.00;;;;;;4998784;28;20242;-89
2023/06/09 07:39:29;;;;;;;8.63;7.70;;;24.10;1.00;;;;;;5001640;28;20188;-87
2023/06/09 07:41:55;;;;;;;8.80;7.88;;;24.10;1.00;;;;;;4997926;28;20242;-88
2023/06/09 07:44:21;;;;;;;8.07;7.28;;;24.70;1.00;;;;;;5002237;28;20203;-89
2023/06/09 07:46:46;;;;;;;8.38;7.50;;;24.70;1.00;;;;;;4998717;28;20274;-83
2023/06/09 07:49:14;;;;;;;10.32;8.68;;;24.80;1.00;;;;;;5002967;28;20262;-88
2023/06/09 07:51:41;;;;;;;9.18;7.53;;;23.80;1.00;;;;;;4994802;28;20212;-90
2023/06/09 07:54:08;;;;;;;7.75;7.05;;;23.60;1.00;;;;;;4999253;28;20216;-89
2023/06/09 07:56:40;;;;;;;7.25;6.60;;;23.70;1.00;;;;;;5001674;28;20183;-86
2023/06/09 07:59:17;;;;;;;6.85;6.25;;;23.80;1.00;;;;;;4982772;28;20335;-87
2023/06/09 08:01:43;;;;;;;9.27;6.80;;;23.90;1.00;;;;;;5018922;23;20235;-73
2023/06/09 08:04:09;;;;;;;7.25;6.55;;;23.90;1.00;;;;;;5007820;28;20209;-73
2023/06/09 08:06:35;;;;;;;7.80;7.18;;;24.10;1.00;;;;;;5007127;28;20631;-74
2023/06/09 08:09:00;;;;;;;7.80;7.10;;;24.20;1.00;;;;;;4988627;28;20610;-74
2023/06/09 08:11:26;;;;;;;9.18;7.20;;;24.30;1.00;;;;;;4988008;28;20211;-73
2023/06/09 08:13:52;;;;;;;7.80;7.10;;;24.20;1.00;;;;;;4988219;28;20180;-74
2023/06/09 08:16:17;;;;;;;7.45;6.78;;;24.10;1.00;;;;;;4986930;28;20191;-74
2023/06/09 08:18:43;;;;;;;6.75;5.95;;;24.00;1.00;;;;;;4988024;28;20698;-74
2023/06/09 08:21:09;;;;;;;6.93;6.28;;;24.20;1.00;;;;;;4988043;28;20187;-74
2023/06/09 08:23:34;;;;;;;7.05;6.35;;;24.10;1.00;;;;;;4987831;28;20259;-73
2023/06/09 08:26:00;;;;;;;6.70;6.03;;;23.70;1.00;;;;;;4987111;28;20192;-75
2023/06/09 08:28:26;;;;;;;5.78;5.28;;;23.60;1.00;;;;;;4987099;28;20207;-74
2023/06/09 08:30:51;;;;;;;7.60;5.60;;;23.80;1.00;;;;;;4987249;28;20204;-73
2023/06/09 08:33:17;;;;;;;6.50;5.40;;;23.70;1.00;;;;;;4987722;28;20266;-74
2023/06/09 08:35:43;;;;;;;6.15;5.47;;;23.70;1.00;;;;;;4985996;28;20184;-74
2023/06/09 08:38:08;;;;;;;6.00;5.45;;;23.80;1.00;;;;;;4985893;28;20211;-74
2023/06/09 08:40:35;;;;;;;6.28;5.68;;;23.70;1.00;;;;;;4986421;28;20731;-74
2023/06/09 08:43:04;;;;;;;5.93;5.25;;;23.60;1.00;;;;;;4986047;28;20553;-73
2023/06/09 08:45:33;;;;;;;6.55;5.93;;;23.50;1.00;;;;;;4986362;28;20173;-75
2023/06/09 08:48:00;;;;;;;9.35;6.13;;;23.10;1.00;;;;;;4986850;28;20222;-73
2023/06/09 08:50:30;;;;;;;7.68;6.22;;;23.20;1.00;;;;;;4985538;28;20184;-74
2023/06/09 08:52:57;;;;;;;8.57;5.57;;;23.10;1.00;;;;;;4986812;28;20235;-73
2023/06/09 08:55:23;;;;;;;7.22;5.70;;;23.20;1.00;;;;;;4987246;28;20194;-73
2023/06/09 08:57:50;;;;;;;5.75;5.25;;;23.20;1.00;;;;;;4985310;28;20649;-74
2023/06/09 09:00:16;;;;;;;7.00;5.85;;;23.20;1.00;;;;;;4986201;28;20271;-74
2023/06/09 09:02:43;;;;;;;6.18;5.57;;;23.30;1.00;;;;;;4986058;28;20275;-73
2023/06/09 09:05:10;;;;;;;6.03;5.43;;;23.30;1.00;;;;;;4985961;28;20227;-74
2023/06/09 09:07:35;;;;;;;9.20;6.35;;;23.00;1.00;;;;;;4985724;28;20276;-74
2023/06/09 09:10:02;;;;;;;6.90;6.03;;;22.90;1.00;;;;;;4986460;28;20259;-74
2023/06/09 09:12:43;;;;;;;6.88;6.15;;;23.10;1.00;;;;;;4986444;28;20826;-74
2023/06/09 09:15:10;;;;;;;6.95;6.35;;;23.40;1.00;;;;;;4987450;28;20184;-74
2023/06/09 09:17:36;;;;;;;6.10;5.60;;;23.10;1.00;;;;;;4986302;28;20199;-73
2023/06/09 09:20:07;;;;;;;6.53;5.70;;;23.30;1.00;;;;;;4987612;28;20184;-74
2023/06/09 09:22:49;;;;;;;6.22;5.70;;;23.30;1.00;;;;;;4983125;28;20215;-73
2023/06/09 09:25:23;;;;;;;6.18;5.68;;;23.30;1.00;;;;;;4986821;28;20259;-74
2023/06/09 09:28:09;;;;;;;6.82;6.03;;;23.20;1.00;;;;;;4986556;28;20254;-73
2023/06/09 09:30:45;;;;;;;6.65;5.80;;;23.30;1.00;;;;;;4983625;28;20659;-73
2023/06/09 09:33:20;;;;;;;6.45;5.95;;;23.30;1.00;;;;;;4983988;28;20199;-74
2023/06/09 09:35:53;;;;;;;6.82;6.20;;;23.30;1.00;;;;;;4984891;28;20221;-73
2023/06/09 09:38:24;;;;;;;6.60;5.90;;;23.20;1.00;;;;;;4983609;28;20200;-74
2023/06/09 09:40:52;;;;;;;8.38;6.20;;;23.30;1.00;;;;;;4985156;28;20605;-72
2023/06/09 09:43:19;;;;;;;9.73;5.82;;;23.30;1.00;;;;;;4985192;28;20188;-74
2023/06/09 09:45:47;;;;;;;6.80;6.20;;;23.30;1.00;;;;;;4985468;28;20194;-74
2023/06/09 09:48:15;;;;;;;6.57;5.75;;;23.20;1.00;;;;;;4985442;28;20200;-73
2023/06/09 09:50:44;;;;;;;6.35;5.75;;;23.20;1.00;;;;;;4985750;28;20222;-73
2023/06/09 09:53:10;;;;;;;6.63;6.05;;;23.20;1.00;;;;;;4984703;28;20199;-74
2023/06/09 09:55:46;;;;;;;6.18;5.70;;;23.00;1.00;;;;;;4985037;28;20287;-74
2023/06/09 09:58:14;;;;;;;6.90;6.20;;;23.00;1.00;;;;;;4986031;28;20211;-73
2023/06/09 10:00:44;;;;;;;6.93;6.03;;;23.00;1.00;;;;;;4986342;28;20299;-73
2023/06/09 10:03:14;;;;;;;7.30;6.60;;;22.90;1.00;;;;;;4984583;28;20635;-74
2023/06/09 10:05:47;;;;;;;7.65;6.93;;;22.80;1.00;;;;;;4985991;28;20572;-73
2023/06/09 10:08:17;;;;;;;6.80;6.07;;;22.90;1.00;;;;;;4985157;28;20231;-74
2023/06/09 10:10:43;;;;;;;6.20;5.68;;;23.00;1.00;;;;;;4985618;28;20200;-74
2023/06/09 10:13:11;;;;;;;6.30;5.80;;;23.00;1.00;;;;;;4986145;28;20298;-73
2023/06/09 10:15:42;;;;;;;6.88;6.15;;;23.10;1.00;;;;;;4984725;28;20207;-75
2023/06/09 10:18:08;;;;;;;7.30;6.70;;;23.20;1.00;;;;;;4985496;28;20204;-74
2023/06/09 10:20:35;;;;;;;7.72;6.35;;;23.10;1.00;;;;;;4984985;28;20556;-74
2023/06/09 10:23:01;;;;;;;6.80;6.20;;;23.20;1.00;;;;;;4985366;28;20521;-74
2023/06/09 10:25:27;;;;;;;7.15;6.55;;;23.40;1.00;;;;;;4984591;28;20176;-73
2023/06/09 10:27:53;;;;;;;7.72;7.05;;;23.50;1.00;;;;;;4985720;28;20903;-74
2023/06/09 10:30:20;;;;;;;8.68;7.32;;;23.40;1.00;;;;;;4986420;28;20172;-73
2023/06/09 10:33:18;;;;;;;7.75;7.05;;;23.30;1.00;;;;;;4985769;28;20190;-74
2023/06/09 10:35:48;;;;;;;8.32;7.53;;;23.20;1.00;;;;;;4983424;28;20647;-73
2023/06/09 10:38:31;;;;;;;8.10;7.40;;;23.00;1.00;;;;;;4985898;28;21379;-74
2023/06/09 10:41:15;;;;;;;8.30;7.50;;;23.00;1.00;;;;;;4986368;28;20187;-73
2023/06/09 10:44:11;;;;;;;7.97;7.28;;;22.70;1.00;;;;;;4985884;28;20211;-72
2023/06/09 10:46:42;;;;;;;8.68;7.88;;;22.70;1.00;;;;;;4985404;28;20184;-73
2023/06/09 10:49:35;;;;;;;8.30;7.50;;;22.80;1.00;;;;;;4985630;28;20180;-74
2023/06/09 10:52:05;;;;;;;8.30;7.60;;;22.70;1.00;;;;;;4987593;28;20642;-74
2023/06/09 10:54:32;;;;;;;7.95;7.25;;;22.70;1.00;;;;;;4985946;28;20181;-74
2023/06/09 10:57:00;;;;;;;8.00;7.30;;;22.60;1.00;;;;;;4985399;28;20181;-73
2023/06/09 10:59:26;;;;;;;7.82;7.13;;;22.40;1.00;;;;;;4985902;28;20176;-73
2023/06/09 11:04:44;;;;;;;7.38;6.72;;;21.90;1.00;;;;;;4987680;28;20184;-74
2023/06/09 11:07:13;;;;;;;8.73;6.53;;;21.70;1.00;;;;;;4988178;28;20282;-73
2023/06/09 11:09:50;;;;;;;8.55;6.72;;;21.70;1.00;;;;;;4988548;28;20640;-73
2023/06/09 11:12:25;;;;;;;8.43;6.70;;;21.40;1.00;;;;;;4988935;28;20663;-74
2023/06/09 11:14:56;;;;;;;7.32;6.63;;;21.20;1.00;;;;;;4988927;28;20214;-72
2023/06/09 11:17:25;;;;;;;6.57;5.97;;;21.40;1.00;;;;;;4988348;28;20200;-73
2023/06/09 11:20:09;;;;;;;7.07;6.38;;;21.30;1.00;;;;;;4988859;28;20180;-74
2023/06/09 11:22:50;;;;;;;6.57;5.95;;;21.50;1.00;;;;;;4989326;28;20184;-73
2023/06/09 11:25:18;;;;;;;6.50;5.90;;;21.60;1.00;;;;;;4989239;28;20180;-74
2023/06/09 11:27:46;;;;;;;7.85;6.38;;;21.60;1.00;;;;;;4988960;28;20223;-73
2023/06/09 11:30:18;;;;;;;6.72;5.70;;;21.70;1.00;;;;;;4989660;28;20191;-73
2023/06/09 11:32:51;;;;;;;7.30;5.65;;;21.80;1.00;;;;;;4989616;28;20204;-74
2023/06/09 11:35:32;;;;;;;6.72;5.97;;;22.00;1.00;;;;;;4988889;28;20180;-74
2023/06/09 11:38:00;;;;;;;6.35;5.80;;;22.10;1.00;;;;;;4989282;28;20228;-74
2023/06/09 11:40:28;;;;;;;6.32;5.72;;;22.20;1.00;;;;;;4989526;28;20183;-74
2023/06/09 11:42:54;;;;;;;6.35;5.20;;;22.20;1.00;;;;;;4989218;28;20263;-74
2023/06/09 11:45:24;;;;;;;6.22;5.68;;;22.40;1.00;;;;;;4988792;28;20181;-73
2023/06/09 11:47:49;;;;;;;5.55;5.10;;;22.60;1.00;;;;;;4988157;28;20212;-74
2023/06/09 11:50:16;;;;;;;6.13;5.47;;;22.70;1.00;;;;;;4989319;28;20176;-73
2023/06/09 11:52:44;;;;;;;6.57;5.95;;;22.80;1.00;;;;;;4989505;28;20220;-74
2023/06/09 11:55:11;;;;;;;5.47;4.95;;;22.70;1.00;;;;;;4988973;28;20699;-73
2023/06/09 11:57:37;;;;;;;5.65;5.13;;;22.80;1.00;;;;;;4989083;28;20282;-73
2023/06/09 12:00:14;;;;;;;6.40;5.80;;;22.90;1.00;;;;;;4988986;28;20613;-73
2023/06/09 12:02:41;;;;;;;5.50;5.00;;;23.00;1.00;;;;;;4989530;28;20568;-75
2023/06/09 12:05:11;;;;;;;6.43;5.72;;;23.10;1.00;;;;;;4989264;28;20695;-74
2023/06/09 12:07:37;;;;;;;6.30;5.70;;;23.30;1.00;;;;;;4988432;28;20235;-74
2023/06/09 12:10:04;;;;;;;6.10;4.95;;;23.40;1.00;;;;;;4989412;28;20215;-73
2023/06/09 12:12:30;;;;;;;5.53;5.03;;;23.50;1.00;;;;;;4988719;28;21215;-73
2023/06/09 12:14:55;;;;;;;6.72;5.78;;;23.80;1.00;;;;;;4988972;28;20183;-74
2023/06/09 12:17:22;;;;;;;6.10;5.50;;;23.80;1.00;;;;;;4987065;28;20291;-73
2023/06/09 12:19:49;;;;;;;6.00;5.50;;;23.70;1.00;;;;;;4988898;28;20184;-73
2023/06/09 12:22:16;;;;;;;6.45;5.50;;;23.60;1.00;;;;;;4988921;28;20177;-74
2023/06/09 12:24:43;;;;;;;5.97;5.38;;;23.60;1.00;;;;;;4987548;28;20203;-72
2023/06/09 12:27:15;;;;;;;5.90;5.38;;;23.70;1.00;;;;;;4985981;28;20877;-74
2023/06/09 12:29:40;;;;;;;6.35;5.75;;;23.70;1.00;;;;;;4987573;28;20191;-73
2023/06/09 12:32:10;;;;;;;6.35;5.40;;;23.70;1.00;;;;;;4987113;28;20569;-73
2023/06/09 12:34:36;;;;;;;6.40;5.80;;;23.60;1.00;;;;;;4986647;28;20840;-74
2023/06/09 12:37:04;;;;;;;5.90;5.30;;;23.50;1.00;;;;;;4987441;28;20199;-73
2023/06/09 12:39:34;;;;;;;6.05;5.45;;;23.50;1.00;;;;;;4988109;28;20197;-74
2023/06/09 12:42:10;;;;;;;6.43;5.25;;;23.30;1.00;;;;;;4988189;28;20548;-74
2023/06/09 12:44:35;;;;;;;6.07;5.38;;;23.30;1.00;;;;;;4988030;28;20188;-74
2023/06/09 12:47:01;;;;;;;7.05;5.40;;;23.50;1.00;;;;;;4987211;28;20208;-74
2023/06/09 12:49:31;;;;;;;6.10;5.50;;;23.50;1.00;;;;;;4987131;28;20188;-73
2023/06/09 12:51:59;;;;;;;5.65;5.15;;;23.50;1.00;;;;;;4987317;28;20215;-73
2023/06/09 12:54:28;;;;;;;6.30;5.70;;;23.50;1.00;;;;;;4987854;28;20545;-74
2023/06/09 12:56:56;;;;;;;6.38;5.40;;;23.50;1.00;;;;;;4985747;28;20276;-74
2023/06/09 12:59:22;;;;;;;6.93;5.65;;;23.70;1.00;;;;;;4985839;28;20777;-73
2023/06/09 13:01:48;;;;;;;6.45;5.88;;;23.90;1.00;;;;;;4986894;28;20195;-74
2023/06/09 13:04:16;;;;;;;6.47;5.53;;;24.00;1.00;;;;;;4986423;28;20266;-74
2023/06/09 13:06:42;;;;;;;6.10;5.60;;;24.00;1.00;;;;;;4986122;28;20930;-74
2023/06/09 13:09:07;;;;;;;5.80;5.38;;;24.00;1.00;;;;;;4986377;28;20719;-73
2023/06/09 13:11:33;;;;;;;7.00;5.85;;;24.10;1.00;;;;;;4986160;28;20254;-73
2023/06/09 13:13:59;;;;;;;5.80;5.30;;;24.30;1.00;;;;;;4987884;28;20183;-73
2023/06/09 13:16:25;;;;;;;8.38;5.57;;;24.50;1.00;;;;;;4987304;28;20176;-73
2023/06/09 13:18:50;;;;;;;8.05;6.20;;;24.70;1.00;;;;;;4988355;28;20201;-74
2023/06/09 13:21:16;;;;;;;6.47;5.65;;;24.70;1.00;;;;;;4988059;28;20184;-72
2023/06/09 13:23:43;;;;;;;6.30;5.70;;;24.70;1.00;;;;;;4987662;28;20665;-72
2023/06/09 13:26:09;;;;;;;6.13;5.50;;;24.80;1.00;;;;;;4987820;28;20263;-73
2023/06/09 13:28:35;;;;;;;5.93;5.32;;;24.70;1.00;;;;;;4986385;28;20863;-73
2023/06/09 13:31:00;;;;;;;6.22;5.68;;;24.80;1.00;;;;;;4987423;28;20208;-73
2023/06/09 13:33:26;;;;;;;6.18;5.57;;;24.90;1.00;;;;;;4987237;28;20552;-73
2023/06/09 13:35:52;;;;;;;8.15;6.22;;;25.00;1.00;;;;;;4987092;28;20427;-74
2023/06/09 13:38:18;;;;;;;6.25;5.72;;;25.10;1.00;;;;;;4987230;28;20651;-73
2023/06/09 13:40:45;;;;;;;7.13;5.90;;;25.20;1.00;;;;;;4987512;28;20198;-74
2023/06/09 13:43:14;;;;;;;6.88;6.18;;;25.30;1.00;;;;;;4986734;28;20172;-73
2023/06/09 13:45:40;;;;;;;6.35;5.75;;;25.40;1.00;;;;;;4986952;28;20181;-73
2023/06/09 13:48:07;;;;;;;6.20;5.60;;;25.50;1.00;;;;;;4986387;28;20254;-74
2023/06/09 13:50:33;;;;;;;6.57;6.03;;;25.60;1.00;;;;;;4987104;28;20517;-73
2023/06/09 13:53:00;;;;;;;6.20;5.60;;;25.50;1.00;;;;;;4987111;28;20173;-73
2023/06/09 13:55:25;;;;;;;7.45;6.45;;;25.60;1.00;;;;;;4986605;28;20180;-74
2023/06/09 13:57:51;;;;;;;6.97;6.30;;;25.70;1.00;;;;;;4986241;28;20207;-73
2023/06/09 14:00:17;;;;;;;6.60;5.90;;;25.80;1.00;;;;;;4987033;28;20259;-74
2023/06/09 14:02:42;;;;;;;7.28;6.32;;;26.00;1.00;;;;;;4987368;28;20192;-73
2023/06/09 14:05:12;;;;;;;7.03;6.38;;;25.90;1.00;;;;;;4986181;28;20203;-74
2023/06/09 14:07:38;;;;;;;6.22;5.72;;;25.80;1.00;;;;;;4986078;28;20211;-74
2023/06/09 14:10:06;;;;;;;7.05;6.35;;;25.90;1.00;;;;;;4986013;28;20515;-73
2023/06/09 14:12:32;;;;;;;6.63;6.13;;;25.90;1.00;;;;;;4985772;28;20231;-72
2023/06/09 14:14:58;;;;;;;6.82;6.20;;;25.90;1.00;;;;;;4985753;28;21289;-73
2023/06/09 14:17:23;;;;;;;6.18;5.68;;;26.10;1.00;;;;;;4986242;28;20284;-74
2023/06/09 14:19:49;;;;;;;6.50;5.85;;;26.20;1.00;;;;;;4986301;28;20604;-72
2023/06/09 14:22:15;;;;;;;7.25;6.57;;;26.20;1.00;;;;;;4986743;28;20188;-73
2023/06/09 14:24:40;;;;;;;6.80;6.20;;;26.20;1.00;;;;;;4984488;28;20188;-73
2023/06/09 14:27:07;;;;;;;7.15;6.07;;;26.30;1.00;;;;;;4983832;28;20691;-74
2023/06/09 14:29:33;;;;;;;6.75;6.15;;;26.20;1.00;;;;;;4984225;28;20184;-73
2023/06/09 14:31:59;;;;;;;6.85;6.25;;;26.30;1.00;;;;;;4985000;28;20212;-72
2023/06/09 14:34:25;;;;;;;6.45;5.90;;;26.40;1.00;;;;;;4984994;28;21074;-73
2023/06/09 14:36:51;;;;;;;7.32;6.40;;;26.60;1.00;;;;;;4981000;28;20184;-73
2023/06/09 14:39:17;;;;;;;7.18;6.20;;;26.60;1.00;;;;;;4984462;28;20183;-73
2023/06/09 14:41:45;;;;;;;6.60;6.00;;;26.60;1.00;;;;;;4989225;28;20188;-71
2023/06/09 14:44:11;;;;;;;6.82;6.22;;;26.80;1.00;;;;;;4986799;28;20195;-72
2023/06/09 14:46:36;;;;;;;7.10;6.50;;;26.70;1.00;;;;;;4988757;28;20188;-72
2023/06/09 14:49:02;;;;;;;7.18;6.47;;;26.90;1.00;;;;;;4988095;28;20243;-73
2023/06/09 14:51:28;;;;;;;6.38;5.78;;;26.90;1.00;;;;;;4987830;28;20203;-72
2023/06/09 14:53:54;;;;;;;7.28;6.68;;;26.90;1.00;;;;;;4987983;28;20580;-71
2023/06/09 14:56:20;;;;;;;7.00;6.38;;;27.10;1.00;;;;;;4988122;28;20258;-72
2023/06/09 14:58:46;;;;;;;6.60;5.75;;;27.10;1.00;;;;;;4988104;28;20328;-72
2023/06/09 15:01:11;;;;;;;6.85;6.05;;;27.20;1.00;;;;;;4988221;28;20762;-73
2023/06/09 15:03:37;;;;;;;6.03;5.50;;;27.10;1.00;;;;;;4988711;28;20229;-73
2023/06/09 15:06:02;;;;;;;5.90;5.38;;;27.10;1.00;;;;;;4988191;28;20196;-73
2023/06/09 15:08:28;;;;;;;6.00;5.40;;;27.10;1.00;;;;;;4988702;28;20208;-71
2023/06/09 15:10:53;;;;;;;6.90;6.30;;;27.40;1.00;;;;;;4988281;28;20849;-72
2023/06/09 15:13:19;;;;;;;6.28;5.68;;;27.50;1.00;;;;;;4988804;28;20180;-71
2023/06/09 15:15:45;;;;;;;7.38;5.93;;;27.50;1.00;;;;;;4988416;28;20543;-72
2023/06/09 15:18:11;;;;;;;5.75;5.13;;;27.60;1.00;;;;;;4988417;28;20204;-72
2023/06/09 15:20:38;;;;;;;5.65;5.15;;;27.60;1.00;;;;;;4988603;28;20262;-73
2023/06/09 15:23:05;;;;;;;6.82;5.13;;;27.60;1.00;;;;;;4988588;28;20639;-72
2023/06/09 15:25:33;;;;;;;5.47;4.95;;;27.50;1.00;;;;;;4988917;28;20176;-72
2023/06/09 15:28:01;;;;;;;5.20;4.80;;;27.40;1.00;;;;;;5003275;28;20554;-72
2023/06/09 15:30:30;;;;;;;6.43;4.80;;;27.30;1.00;;;;;;4988264;28;20172;-72
2023/06/09 15:33:17;;;;;;;6.13;5.18;;;27.20;1.00;;;;;;4988426;28;20264;-72
2023/06/09 15:35:46;;;;;;;5.45;4.95;;;27.40;1.00;;;;;;4986810;28;20226;-71
2023/06/09 15:38:13;;;;;;;6.38;4.72;;;27.30;1.00;;;;;;4987869;28;20291;-72
2023/06/09 15:40:41;;;;;;;4.88;4.47;;;27.20;1.00;;;;;;4987967;28;20189;-72
2023/06/09 15:43:07;;;;;;;5.30;4.80;;;27.30;1.00;;;;;;4988451;28;20263;-72
2023/06/09 15:45:38;;;;;;;5.60;5.00;;;27.50;1.00;;;;;;4988618;28;20647;-72
2023/06/09 15:48:06;;;;;;;4.93;4.30;;;27.50;1.00;;;;;;4987715;28;20857;-72
2023/06/09 15:50:32;;;;;;;5.00;4.50;;;27.40;1.00;;;;;;4986965;28;20188;-72
2023/06/09 15:52:58;;;;;;;4.50;4.10;;;27.30;1.00;;;;;;4987872;28;20294;-73
2023/06/09 15:55:24;;;;;;;6.90;4.70;;;27.30;1.00;;;;;;4987859;28;20266;-72
2023/06/09 15:57:50;;;;;;;5.90;4.63;;;27.20;1.00;;;;;;4987896;28;20204;-72
2023/06/09 16:00:16;;;;;;;5.45;4.78;;;27.10;1.00;;;;;;4987651;28;20184;-72
2023/06/09 16:02:41;;;;;;;4.85;4.35;;;27.10;1.00;;;;;;4988320;28;20211;-72
2023/06/09 16:05:07;;;;;;;4.75;4.35;;;27.00;1.00;;;;;;4986257;28;20192;-72
2023/06/09 16:07:32;;;;;;;4.45;4.05;;;27.00;1.00;;;;;;4987554;28;20216;-73
2023/06/09 16:09:58;;;;;;;4.82;4.43;;;26.90;1.00;;;;;;4987556;28;20274;-73
2023/06/09 16:12:23;;;;;;;4.82;4.10;;;27.00;1.00;;;;;;4987973;28;20667;-72
2023/06/09 16:14:50;;;;;;;5.10;4.20;;;27.10;1.00;;;;;;4987113;28;20291;-73
2023/06/09 16:17:16;;;;;;;4.43;4.03;;;27.10;1.00;;;;;;4986942;28;20196;-73
2023/06/09 16:19:41;;;;;;;5.38;4.10;;;27.10;1.00;;;;;;4987547;28;20195;-73
2023/06/09 16:22:07;;;;;;;5.20;4.05;;;27.00;1.00;;;;;;4987687;28;20199;-72
2023/06/09 16:24:33;;;;;;;4.38;3.97;;;27.10;1.00;;;;;;4986753;28;20648;-73
2023/06/09 16:26:58;;;;;;;4.50;4.10;;;27.00;1.00;;;;;;4987418;28;20671;-72
2023/06/09 16:29:24;;;;;;;4.93;4.03;;;27.00;1.00;;;;;;4988172;28;20268;-72
2023/06/09 16:31:50;;;;;;;4.03;3.58;;;26.90;1.00;;;;;;4988599;28;20259;-72
2023/06/09 16:34:15;;;;;;;5.10;4.00;;;26.90;1.00;;;;;;4986724;28;20187;-73
2023/06/09 16:36:41;;;;;;;4.25;3.60;;;26.90;1.00;;;;;;4987633;28;20635;-73
2023/06/09 16:39:07;;;;;;;4.07;3.78;;;26.80;1.00;;;;;;4987114;28;20180;-72
2023/06/09 16:41:32;;;;;;;4.57;4.25;;;26.70;1.00;;;;;;4987847;28;20192;-72
2023/06/09 16:44:00;;;;;;;4.80;3.55;;;26.70;1.00;;;;;;4987993;28;20263;-72
2023/06/09 16:46:26;;;;;;;3.92;3.60;;;26.80;1.00;;;;;;4986920;28;20805;-73
2023/06/09 16:48:51;;;;;;;3.80;3.40;;;26.60;1.00;;;;;;4987960;28;20216;-74
2023/06/09 16:51:17;;;;;;;3.40;3.13;;;26.60;1.00;;;;;;4987024;28;20218;-71
2023/06/09 16:53:43;;;;;;;3.95;3.55;;;26.50;1.00;;;;;;4987479;28;20553;-72
2023/06/09 16:56:09;;;;;;;3.70;3.30;;;26.30;1.00;;;;;;4986926;28;20222;-72
2023/06/09 16:58:35;;;;;;;3.20;2.97;;;26.30;1.00;;;;;;4987629;28;20228;-71
2023/06/09 17:01:00;;;;;;;4.15;3.45;;;26.20;1.00;;;;;;4987755;28;20200;-72
2023/06/09 17:03:26;;;;;;;3.70;3.40;;;26.20;1.00;;;;;;4987377;28;20260;-73
2023/06/09 17:05:51;;;;;;;4.07;3.67;;;26.10;1.00;;;;;;4987784;28;20212;-73
2023/06/09 17:08:17;;;;;;;3.00;2.80;;;26.10;1.00;;;;;;4986731;28;20760;-72
2023/06/09 17:10:43;;;;;;;3.80;3.20;;;26.00;1.00;;;;;;4987341;28;20268;-73
2023/06/09 17:13:09;;;;;;;3.60;3.13;;;24.50;1.00;;;;;;4987264;28;20191;-71
2023/06/09 17:15:35;;;;;;;3.80;3.22;;;25.90;1.00;;;;;;4986970;28;20280;-73
2023/06/09 17:18:01;;;;;;;3.08;2.88;;;25.90;1.00;;;;;;4986178;28;20203;-72
2023/06/09 17:20:28;;;;;;;4.53;3.17;;;25.90;1.00;;;;;;4986738;28;20597;-72
2023/06/09 17:22:54;;;;;;;3.28;2.97;;;25.80;1.00;;;;;;4986744;28;20242;-72
2023/06/09 17:25:20;;;;;;;3.80;2.80;;;25.80;1.00;;;;;;4986890;28;20188;-73
2023/06/09 17:27:46;;;;;;;3.65;3.35;;;25.80;1.00;;;;;;4986126;28;20238;-72
2023/06/09 17:30:13;;;;;;;3.28;2.97;;;25.70;1.00;;;;;;4986546;28;20357;-71